createdAt,value
2022-09-01T00:00:03.155Z,75517.59
2022-09-01T00:02:32.198Z,75513.53
2022-09-01T00:05:04.587Z,75511.47
2022-09-01T00:07:34.602Z,75517.59
2022-09-01T00:10:04.815Z,75519.63
2022-09-01T00:12:33.125Z,75513.53
2022-09-01T00:15:01.005Z,75515.56
2022-09-01T00:17:30.014Z,75515.56
2022-09-01T00:19:58.138Z,75521.69
2022-09-01T00:22:27.875Z,75517.59
2022-09-01T00:24:56.705Z,75511.47
2022-09-01T00:27:27.876Z,75511.47
2022-09-01T00:29:59.284Z,75521.69
2022-09-01T00:32:27.774Z,75515.56
2022-09-01T00:34:55.618Z,75521.69
2022-09-01T00:37:23.526Z,75517.59
2022-09-01T00:39:53.023Z,75519.63
2022-09-01T00:42:20.866Z,75517.59
2022-09-01T00:44:48.797Z,75513.53
2022-09-01T00:47:16.813Z,75513.53
2022-09-01T00:49:48.317Z,75513.53
2022-09-01T00:52:20.260Z,75509.44
2022-09-01T00:54:53.815Z,75513.53
2022-09-01T00:57:22.436Z,75515.56
2022-09-01T00:59:57.527Z,75511.47
2022-09-01T01:02:26.159Z,75511.47
2022-09-01T01:04:59.490Z,75511.47
2022-09-01T01:07:29.526Z,75507.41
2022-09-01T01:09:58.989Z,75503.34
2022-09-01T01:12:27.903Z,75507.41
2022-09-01T01:14:57.054Z,75503.34
2022-09-01T01:17:25.301Z,75509.44
2022-09-01T01:20:13.204Z,75511.47
2022-09-01T01:23:06.367Z,75505.38
2022-09-01T01:25:39.221Z,75505.38
2022-09-01T01:28:14.482Z,75507.41
2022-09-01T01:30:45.528Z,75507.41
2022-09-01T01:33:13.669Z,75507.41
2022-09-01T01:35:42.404Z,75505.38
2022-09-01T01:38:11.368Z,75499.25
2022-09-01T01:40:41.554Z,75501.28
2022-09-01T01:43:12.239Z,75503.34
2022-09-01T01:45:40.444Z,75503.34
2022-09-01T01:48:08.671Z,75495.19
2022-09-01T01:50:38.078Z,75495.19
2022-09-01T01:53:11.267Z,75495.19
2022-09-01T01:55:43.768Z,75501.28
2022-09-01T01:58:12.634Z,75501.28
2022-09-01T02:00:42.924Z,75495.19
2022-09-01T02:03:12.794Z,75501.28
2022-09-01T02:05:41.126Z,75497.22
2022-09-01T02:08:11.826Z,75499.25
2022-09-01T02:10:44.816Z,75501.28
2022-09-01T02:13:16.476Z,75501.28
2022-09-01T02:15:48.097Z,75505.38
2022-09-01T02:18:20.107Z,75503.34
2022-09-01T02:20:50.368Z,75503.34
2022-09-01T02:23:24.517Z,75499.25
2022-09-01T02:26:15.111Z,75499.25
2022-09-01T02:28:45.821Z,75501.28
2022-09-01T02:31:14.105Z,75505.38
2022-09-01T02:33:45.668Z,75517.59
2022-09-01T02:36:17.314Z,75523.72
2022-09-01T02:38:53.503Z,75517.59
2022-09-01T02:41:27.270Z,75519.63
2022-09-01T02:43:55.194Z,75513.53
2022-09-01T02:46:24.677Z,75517.59
2022-09-01T02:48:53.529Z,75515.56
2022-09-01T02:51:25.139Z,75515.56
2022-09-01T02:53:53.377Z,75513.53
2022-09-01T02:56:25.917Z,75509.44
2022-09-01T02:58:55.362Z,75519.63
2022-09-01T03:01:25.788Z,75513.53
2022-09-01T03:03:56.771Z,75515.56
2022-09-01T03:06:25.446Z,75515.56
2022-09-01T03:08:55.433Z,75511.47
2022-09-01T03:11:25.160Z,75511.47
2022-09-01T03:13:54.055Z,75513.53
2022-09-01T03:16:23.540Z,75513.53
2022-09-01T03:18:52.726Z,75507.41
2022-09-01T03:21:21.564Z,75509.44
2022-09-01T03:23:50.832Z,75509.44
2022-09-01T03:26:22.069Z,75511.47
2022-09-01T03:28:52.145Z,75505.38
2022-09-01T03:31:22.016Z,75505.38
2022-09-01T03:33:51.069Z,75503.34
2022-09-01T03:36:20.211Z,75497.22
2022-09-01T03:38:49.823Z,75499.25
2022-09-01T03:41:19.735Z,75493.13
2022-09-01T03:43:48.530Z,75499.25
2022-09-01T03:46:22.393Z,75507.41
2022-09-01T03:48:51.792Z,75503.34
2022-09-01T03:51:22.790Z,75509.44
2022-09-01T03:53:55.500Z,75507.41
2022-09-01T03:56:27.397Z,75509.44
2022-09-01T03:58:57.023Z,75511.47
2022-09-01T04:01:27.592Z,75505.38
2022-09-01T04:03:55.553Z,75511.47
2022-09-01T04:06:24.731Z,75511.47
2022-09-01T04:09:02.915Z,75515.56
2022-09-01T04:11:32.332Z,75519.63
2022-09-01T04:14:00.601Z,75519.63
2022-09-01T04:16:49.813Z,75523.72
2022-09-01T04:19:25.146Z,75523.72
2022-09-01T04:21:55.226Z,75527.78
2022-09-01T04:24:28.046Z,75523.72
2022-09-01T04:26:58.481Z,75523.72
2022-09-01T04:29:28.230Z,75527.78
2022-09-01T04:32:02.134Z,75531.88
2022-09-01T04:34:37.279Z,75529.84
2022-09-01T04:37:13.173Z,75525.75
2022-09-01T04:39:51.332Z,75537.97
2022-09-01T04:42:21.763Z,75527.78
2022-09-01T04:44:49.874Z,75531.88
2022-09-01T04:47:19.859Z,75533.91
2022-09-01T04:49:49.014Z,75544.09
2022-09-01T04:52:17.210Z,75540.03
2022-09-01T04:54:45.256Z,75552.25
2022-09-01T04:57:13.426Z,75548.19
2022-09-01T04:59:43.181Z,75552.25
2022-09-01T05:02:11.741Z,75552.25
2022-09-01T05:04:41.859Z,75554.28
2022-09-01T05:07:10.264Z,75560.41
2022-09-01T05:09:38.847Z,75576.72
2022-09-01T05:12:12.878Z,75578.75
2022-09-01T05:14:48.468Z,75603.22
2022-09-01T05:17:17.650Z,75597.09
2022-09-01T05:19:50.636Z,75593.03
2022-09-01T05:22:22.302Z,75597.09
2022-09-01T05:24:54.999Z,75588.94
2022-09-01T05:27:23.825Z,75588.94
2022-09-01T05:29:54.144Z,75580.78
2022-09-01T05:32:25.987Z,75574.69
2022-09-01T05:34:55.505Z,75568.56
2022-09-01T05:37:23.446Z,75572.63
2022-09-01T05:39:52.916Z,75572.63
2022-09-01T05:42:21.823Z,75572.63
2022-09-01T05:44:52.693Z,75576.72
2022-09-01T05:47:21.892Z,75586.91
2022-09-01T05:49:50.808Z,75578.75
2022-09-01T05:52:25.579Z,75582.84
2022-09-01T05:54:55.571Z,75580.78
2022-09-01T05:57:34.429Z,75570.59
2022-09-01T06:00:10.929Z,75568.56
2022-09-01T06:02:39.976Z,75560.41
2022-09-01T06:05:09.284Z,75556.34
2022-09-01T06:07:41.000Z,75558.38
2022-09-01T06:10:09.993Z,75548.19
2022-09-01T06:12:37.855Z,75544.09
2022-09-01T06:15:15.771Z,75529.84
2022-09-01T06:17:44.936Z,75527.78
2022-09-01T06:20:12.868Z,75531.88
2022-09-01T06:22:42.156Z,75523.72
2022-09-01T06:25:11.359Z,75505.38
2022-09-01T06:27:41.076Z,75509.44
2022-09-01T06:30:15.018Z,75507.41
2022-09-01T06:32:44.815Z,75509.44
2022-09-01T06:35:13.574Z,75503.34
2022-09-01T06:37:43.347Z,75505.38
2022-09-01T06:40:17.879Z,75499.25
2022-09-01T06:42:48.181Z,75495.19
2022-09-01T06:45:17.616Z,75489.06
2022-09-01T06:47:47.285Z,75491.09
2022-09-01T06:51:14.649Z,75493.13
2022-09-01T06:55:59.402Z,75499.25
2022-09-01T06:58:27.718Z,75495.19
2022-09-01T07:00:55.594Z,75499.25
2022-09-01T07:03:25.044Z,75499.25
2022-09-01T07:06:09.581Z,75499.25
2022-09-01T07:14:19.257Z,75495.19
2022-09-01T07:16:52.507Z,75507.41
2022-09-01T07:19:21.561Z,75503.34
2022-09-01T07:24:40.410Z,75495.19
2022-09-01T07:27:09.556Z,75503.34
2022-09-01T07:29:39.310Z,75507.41
2022-09-01T07:35:00.382Z,75491.09
2022-09-01T07:43:18.943Z,75446.25
2022-09-01T07:45:58.297Z,75425.88
2022-09-01T07:51:35.927Z,75413.66
2022-09-01T07:54:04.640Z,75409.56
2022-09-01T07:56:39.458Z,75409.56
2022-09-01T07:59:15.059Z,75397.34
2022-09-01T08:01:43.916Z,75389.19
2022-09-01T08:04:12.175Z,75381.03
2022-09-01T08:06:40.960Z,75374.91
2022-09-01T08:09:11.940Z,75360.66
2022-09-01T08:12:02.661Z,75356.56
2022-09-01T08:14:33.758Z,75328.03
2022-09-01T08:17:16.841Z,75311.72
2022-09-01T08:19:46.979Z,75319.88
2022-09-01T08:22:16.832Z,75336.19
2022-09-01T08:24:44.672Z,75328.03
2022-09-01T08:27:13.852Z,75307.66
2022-09-01T08:29:42.313Z,75295.41
2022-09-01T08:32:11.333Z,75275.03
2022-09-01T08:34:39.865Z,75289.31
2022-09-01T08:37:08.117Z,75279.09
2022-09-01T08:39:36.107Z,75258.72
2022-09-01T08:42:13.196Z,75236.31
2022-09-01T08:44:51.576Z,75217.97
2022-09-01T08:47:35.563Z,75191.47
2022-09-01T08:50:10.413Z,75164.97
2022-09-01T08:52:43.292Z,75158.84
2022-09-01T08:55:17.542Z,75173.13
2022-09-01T08:57:47.844Z,75173.13
2022-09-01T09:00:23.336Z,75148.66
2022-09-01T09:03:12.579Z,75136.44
2022-09-01T09:05:57.640Z,75124.19
2022-09-01T09:08:50.124Z,75107.91
2022-09-01T09:11:31.103Z,75099.75
2022-09-01T09:14:12.589Z,75136.44
2022-09-01T09:16:45.304Z,75111.97
2022-09-01T09:19:20.585Z,75083.44
2022-09-01T09:21:50.985Z,75063.06
2022-09-01T09:24:29.181Z,75046.75
2022-09-01T09:27:07.030Z,75016.19
2022-09-01T09:29:37.573Z,75020.25
2022-09-01T09:35:18.126Z,75034.53
2022-09-01T09:37:46.940Z,75067.13
2022-09-01T09:40:18.380Z,75095.66
2022-09-01T09:43:03.159Z,75103.81
2022-09-01T09:45:35.893Z,75111.97
2022-09-01T09:48:10.819Z,75105.84
2022-09-01T09:50:42.068Z,75067.13
2022-09-01T09:53:28.206Z,74997.84
2022-09-01T09:56:00.015Z,74936.69
2022-09-01T09:58:35.283Z,74936.69
2022-09-01T10:01:17.411Z,74961.16
2022-09-01T10:03:50.443Z,74981.53
2022-09-01T10:06:33.689Z,74993.75
2022-09-01T10:09:03.198Z,75022.28
2022-09-01T10:11:41.394Z,75022.28
2022-09-01T10:14:26.143Z,75034.53
2022-09-01T10:17:06.452Z,75022.28
2022-09-01T10:19:36.462Z,75024.34
2022-09-01T10:22:04.627Z,75020.25
2022-09-01T10:24:38.822Z,75022.28
2022-09-01T10:27:14.811Z,75018.22
2022-09-01T10:29:47.897Z,75022.28
2022-09-01T10:32:35.137Z,74999.88
2022-09-01T10:35:10.987Z,75028.41
2022-09-01T10:37:41.295Z,75054.91
2022-09-01T10:40:30.264Z,75089.56
2022-09-01T10:43:05.400Z,75103.81
2022-09-01T10:45:36.567Z,75111.97
2022-09-01T10:48:32.138Z,75128.28
2022-09-01T10:51:38.934Z,75140.50
2022-09-01T10:54:09.552Z,75136.44
2022-09-01T10:56:44.395Z,75109.94
2022-09-01T10:59:32.863Z,75075.28
2022-09-01T11:02:34.682Z,75058.97
2022-09-01T11:05:16.184Z,75067.13
2022-09-01T11:08:09.188Z,75073.25
2022-09-01T11:10:54.733Z,75061.03
2022-09-01T11:13:35.776Z,75038.59
2022-09-01T11:16:47.003Z,75038.59
2022-09-01T11:19:32.889Z,75026.38
2022-09-01T11:22:28.169Z,75026.38
2022-09-01T11:25:38.810Z,75022.28
2022-09-01T11:28:44.136Z,75024.34
2022-09-01T11:31:29.920Z,75042.69
2022-09-01T11:34:06.765Z,75046.75
2022-09-01T11:36:37.307Z,75050.81
2022-09-01T11:39:20.702Z,75048.78
2022-09-01T11:41:59.606Z,75038.59
2022-09-01T11:44:38.096Z,75026.38
2022-09-01T11:47:13.641Z,75018.22
2022-09-01T11:49:50.690Z,75008.03
2022-09-01T11:52:21.603Z,74993.75
2022-09-01T11:54:50.954Z,74967.25
2022-09-01T11:57:31.502Z,74953.00
2022-09-01T12:00:03.232Z,74950.97
2022-09-01T12:02:36.616Z,74948.91
2022-09-01T12:05:26.250Z,74936.69
2022-09-01T12:07:54.348Z,74928.53
2022-09-01T12:10:29.743Z,74918.34
2022-09-01T12:13:07.053Z,74920.38
2022-09-01T12:15:50.396Z,74922.44
2022-09-01T12:18:31.380Z,74916.31
2022-09-01T12:21:02.229Z,74912.22
2022-09-01T12:23:32.062Z,74928.53
2022-09-01T12:26:02.328Z,74940.78
2022-09-01T12:28:33.859Z,74948.91
2022-09-01T12:31:07.464Z,74953.00
2022-09-01T12:33:36.746Z,74961.16
2022-09-01T12:36:23.964Z,74961.16
2022-09-01T12:38:53.896Z,74969.31
2022-09-01T12:41:35.894Z,74969.31
2022-09-01T12:44:30.638Z,74973.38
2022-09-01T12:47:02.222Z,74977.47
2022-09-01T12:49:47.982Z,74987.66
2022-09-01T12:52:25.994Z,74989.69
2022-09-01T12:55:09.097Z,74989.69
2022-09-01T12:57:39.360Z,74997.84
2022-09-01T13:00:16.172Z,74987.66
2022-09-01T13:02:48.229Z,74979.50
2022-09-01T13:05:31.834Z,74981.53
2022-09-01T13:08:04.152Z,74981.53
2022-09-01T13:10:35.745Z,74981.53
2022-09-01T13:13:03.826Z,74979.50
2022-09-01T13:15:32.677Z,74969.31
2022-09-01T13:18:02.557Z,74965.22
2022-09-01T13:20:31.032Z,74961.16
2022-09-01T13:22:59.642Z,74961.16
2022-09-01T13:25:27.631Z,74953.00
2022-09-01T13:27:55.606Z,74965.22
2022-09-01T13:30:28.302Z,74959.13
2022-09-01T13:35:46.697Z,74940.78
2022-09-01T13:38:16.692Z,74918.34
2022-09-01T13:40:47.180Z,74920.38
2022-09-01T13:43:16.488Z,74950.97
2022-09-01T13:45:45.205Z,74957.06
2022-09-01T13:48:17.134Z,74965.22
2022-09-01T13:53:37.738Z,75010.06
2022-09-01T13:56:05.992Z,75020.25
2022-09-01T13:58:33.954Z,75040.63
2022-09-01T14:01:01.982Z,75054.91
2022-09-01T14:03:32.200Z,75058.97
2022-09-01T14:06:01.589Z,75063.06
2022-09-01T14:08:30.790Z,75058.97
2022-09-01T14:10:58.666Z,75061.03
2022-09-01T14:13:28.776Z,75063.06
2022-09-01T14:15:56.944Z,75071.22
2022-09-01T14:18:30.955Z,75067.13
2022-09-01T14:21:01.240Z,75063.06
2022-09-01T14:23:30.606Z,75050.81
2022-09-01T14:25:59.626Z,75042.69
2022-09-01T14:28:27.687Z,75032.47
2022-09-01T14:33:27.304Z,75034.53
2022-09-01T14:35:55.270Z,75026.38
2022-09-01T14:38:23.776Z,75028.41
2022-09-01T14:40:53.706Z,75032.47
2022-09-01T14:43:22.131Z,75022.28
2022-09-01T14:45:50.338Z,75010.06
2022-09-01T14:48:19.506Z,75018.22
2022-09-01T14:50:50.866Z,75028.41
2022-09-01T14:53:19.487Z,75030.44
2022-09-01T14:55:47.921Z,75038.59
2022-09-01T14:58:18.192Z,75032.47
2022-09-01T15:00:47.795Z,75042.69
2022-09-01T15:03:19.297Z,75052.88
2022-09-01T15:05:51.165Z,75054.91
2022-09-01T15:08:19.375Z,75056.94
2022-09-01T15:10:47.539Z,75058.97
2022-09-01T15:13:15.496Z,75052.88
2022-09-01T15:15:44.722Z,75022.28
2022-09-01T15:18:12.610Z,74997.84
2022-09-01T15:20:48.654Z,74983.56
2022-09-01T15:23:18.590Z,74985.59
2022-09-01T15:25:47.136Z,74995.81
2022-09-01T15:28:16.009Z,75006.00
2022-09-01T15:30:46.500Z,75018.22
2022-09-01T15:33:16.130Z,75034.53
2022-09-01T15:35:44.972Z,75063.06
2022-09-01T15:38:13.448Z,75067.13
2022-09-01T15:40:46.090Z,75081.41
2022-09-01T15:43:26.669Z,75083.44
2022-09-01T15:45:58.110Z,75085.47
2022-09-01T15:48:27.008Z,75087.50
2022-09-01T15:50:55.280Z,75095.66
2022-09-01T15:53:23.169Z,75095.66
2022-09-01T15:55:51.043Z,75097.72
2022-09-01T15:58:20.192Z,75099.75
2022-09-01T16:00:48.222Z,75101.78
2022-09-01T16:03:17.536Z,75099.75
2022-09-01T16:05:45.466Z,75105.84
2022-09-01T16:08:13.817Z,75103.81
2022-09-01T16:10:42.422Z,75107.91
2022-09-01T16:13:11.216Z,75103.81
2022-09-01T16:15:45.766Z,75105.84
2022-09-01T16:18:29.254Z,75103.81
2022-09-01T16:21:11.644Z,75116.06
2022-09-01T16:23:43.725Z,75116.06
2022-09-01T16:26:12.457Z,75124.19
2022-09-01T16:28:43.027Z,75128.28
2022-09-01T16:31:14.004Z,75136.44
2022-09-01T16:33:49.844Z,75144.59
2022-09-01T16:36:32.123Z,75140.50
2022-09-01T16:39:08.916Z,75144.59
2022-09-01T16:41:45.239Z,75152.75
2022-09-01T16:44:25.377Z,75150.69
2022-09-01T16:47:01.876Z,75156.81
2022-09-01T16:49:37.806Z,75167.00
2022-09-01T16:52:13.289Z,75169.03
2022-09-01T16:54:55.926Z,75169.03
2022-09-01T16:57:35.712Z,75177.19
2022-09-01T17:00:08.286Z,75177.19
2022-09-01T17:02:43.093Z,75181.28
2022-09-01T17:05:23.103Z,75187.38
2022-09-01T17:07:54.017Z,75183.31
2022-09-01T17:10:34.467Z,75189.44
2022-09-01T17:13:16.480Z,75189.44
2022-09-01T17:15:48.102Z,75193.50
2022-09-01T17:18:22.295Z,75197.56
2022-09-01T17:20:58.306Z,75199.63
2022-09-01T17:23:30.728Z,75205.72
2022-09-01T17:26:03.113Z,75209.81
2022-09-01T17:28:35.966Z,75217.97
2022-09-01T17:31:14.387Z,75222.03
2022-09-01T17:34:01.946Z,75222.03
2022-09-01T17:36:46.653Z,75230.19
2022-09-01T17:39:29.298Z,75232.22
2022-09-01T17:42:01.101Z,75238.34
2022-09-01T17:44:37.270Z,75234.28
2022-09-01T17:47:13.023Z,75240.38
2022-09-01T17:49:53.960Z,75240.38
2022-09-01T17:52:47.454Z,75246.50
2022-09-01T17:55:36.546Z,75246.50
2022-09-01T17:58:13.428Z,75254.66
2022-09-01T18:00:48.654Z,75258.72
2022-09-01T18:03:31.870Z,75260.75
2022-09-01T18:06:05.184Z,75266.88
2022-09-01T18:08:40.252Z,75270.97
2022-09-01T18:11:12.736Z,75279.09
2022-09-01T18:13:54.105Z,75279.09
2022-09-01T18:16:26.798Z,75287.25
2022-09-01T18:18:55.928Z,75293.38
2022-09-01T18:21:30.901Z,75295.41
2022-09-01T18:24:14.122Z,75299.50
2022-09-01T18:26:45.961Z,75309.69
2022-09-01T18:29:14.136Z,75307.66
2022-09-01T18:32:04.442Z,75311.72
2022-09-01T18:34:48.954Z,75315.81
2022-09-01T18:37:24.434Z,75319.88
2022-09-01T18:40:01.864Z,75328.03
2022-09-01T18:42:37.299Z,75332.09
2022-09-01T18:45:14.733Z,75336.19
2022-09-01T18:47:51.013Z,75338.22
2022-09-01T18:50:25.426Z,75342.28
2022-09-01T18:53:08.915Z,75344.34
2022-09-01T18:55:46.697Z,75344.34
2022-09-01T18:58:40.674Z,75348.41
2022-09-01T19:01:10.919Z,75348.41
2022-09-01T19:03:45.912Z,75366.75
2022-09-01T19:06:30.254Z,75364.72
2022-09-01T19:09:19.872Z,75368.78
2022-09-01T19:12:02.789Z,75372.88
2022-09-01T19:14:37.275Z,75381.03
2022-09-01T19:17:26.177Z,75381.03
2022-09-01T19:19:58.964Z,75385.09
2022-09-01T19:22:34.616Z,75385.09
2022-09-01T19:25:19.918Z,75395.28
2022-09-01T19:27:58.049Z,75395.28
2022-09-01T19:30:26.205Z,75393.25
2022-09-01T19:32:54.727Z,75401.41
2022-09-01T19:35:22.939Z,75405.50
2022-09-01T19:37:51.517Z,75405.50
2022-09-01T19:40:24.180Z,75417.72
2022-09-01T19:43:01.081Z,75425.88
2022-09-01T19:45:35.304Z,75423.84
2022-09-01T19:48:10.047Z,75425.88
2022-09-01T19:50:42.672Z,75425.88
2022-09-01T19:53:22.012Z,75425.88
2022-09-01T19:55:57.314Z,75432.00
2022-09-01T19:58:29.280Z,75442.19
2022-09-01T20:00:59.461Z,75446.25
2022-09-01T20:03:34.341Z,75450.34
2022-09-01T20:06:06.934Z,75454.41
2022-09-01T20:08:41.037Z,75446.25
2022-09-01T20:11:14.666Z,75446.25
2022-09-01T20:14:15.531Z,75442.19
2022-09-01T20:16:48.596Z,75448.28
2022-09-01T20:19:22.306Z,75452.38
2022-09-01T20:21:50.486Z,75458.50
2022-09-01T20:24:32.390Z,75458.50
2022-09-01T20:27:04.656Z,75458.50
2022-09-01T20:29:44.441Z,75462.56
2022-09-01T20:32:28.103Z,75470.72
2022-09-01T20:34:59.915Z,75472.75
2022-09-01T20:37:37.765Z,75474.78
2022-09-01T20:40:08.824Z,75474.78
2022-09-01T20:42:44.648Z,75468.69
2022-09-01T20:45:17.158Z,75474.78
2022-09-01T20:47:50.906Z,75474.78
2022-09-01T20:50:19.998Z,75478.88
2022-09-01T20:53:07.209Z,75485.00
2022-09-01T20:55:42.093Z,75489.06
2022-09-01T20:58:16.809Z,75489.06
2022-09-01T21:00:51.581Z,75495.19
2022-09-01T21:03:34.378Z,75493.13
2022-09-01T21:06:10.051Z,75495.19
2022-09-01T21:08:45.049Z,75499.25
2022-09-01T21:11:25.484Z,75499.25
2022-09-01T21:14:08.340Z,75503.34
2022-09-01T21:16:54.840Z,75503.34
2022-09-01T21:19:36.193Z,75505.38
2022-09-01T21:22:07.255Z,75507.41
2022-09-01T21:24:35.654Z,75503.34
2022-09-01T21:27:07.340Z,75503.34
2022-09-01T21:29:49.791Z,75505.38
2022-09-01T21:32:19.320Z,75503.34
2022-09-01T21:34:48.726Z,75507.41
2022-09-01T21:37:16.631Z,75507.41
2022-09-01T21:39:44.607Z,75513.53
2022-09-01T21:42:13.771Z,75517.59
2022-09-01T21:44:44.615Z,75525.75
2022-09-01T21:47:13.913Z,75531.88
2022-09-01T21:49:43.411Z,75540.03
2022-09-01T21:52:11.613Z,75542.06
2022-09-01T21:54:39.640Z,75540.03
2022-09-01T21:57:07.772Z,75544.09
2022-09-01T21:59:35.703Z,75544.09
2022-09-01T22:02:06.872Z,75537.97
2022-09-01T22:04:37.123Z,75540.03
2022-09-01T22:07:09.274Z,75548.19
2022-09-01T22:09:37.698Z,75550.22
2022-09-01T22:12:06.645Z,75550.22
2022-09-01T22:14:35.071Z,75544.09
2022-09-01T22:17:04.606Z,75542.06
2022-09-01T22:19:34.663Z,75544.09
2022-09-01T22:22:03.400Z,75548.19
2022-09-01T22:24:33.351Z,75550.22
2022-09-01T22:27:01.689Z,75550.22
2022-09-01T22:29:30.033Z,75552.25
2022-09-01T22:32:00.609Z,75552.25
2022-09-01T22:34:29.017Z,75552.25
2022-09-01T22:36:57.323Z,75550.22
2022-09-01T22:39:25.817Z,75552.25
2022-09-01T22:41:55.673Z,75556.34
2022-09-01T22:44:24.386Z,75554.28
2022-09-01T22:46:52.834Z,75556.34
2022-09-01T22:49:21.397Z,75556.34
2022-09-01T22:51:50.364Z,75552.25
2022-09-01T22:54:18.757Z,75552.25
2022-09-01T22:56:47.057Z,75556.34
2022-09-01T22:59:16.992Z,75554.28
2022-09-01T23:01:47.773Z,75556.34
2022-09-01T23:04:17.715Z,75566.53
2022-09-01T23:06:49.723Z,75570.59
2022-09-01T23:09:19.727Z,75572.63
2022-09-01T23:11:49.225Z,75576.72
2022-09-01T23:14:19.689Z,75572.63
2022-09-01T23:16:51.379Z,75576.72
2022-09-01T23:19:20.746Z,75580.78
2022-09-01T23:21:51.217Z,75591.00
2022-09-01T23:24:20.829Z,75595.06
2022-09-01T23:26:49.811Z,75605.25
2022-09-01T23:29:19.615Z,75601.19
2022-09-01T23:31:48.504Z,75609.34
2022-09-01T23:34:17.053Z,75625.63
2022-09-01T23:36:45.581Z,75629.72
2022-09-01T23:39:14.085Z,75637.88
2022-09-01T23:41:43.201Z,75641.94
2022-09-01T23:44:13.607Z,75641.94
2022-09-01T23:46:46.216Z,75650.09
2022-09-01T23:49:16.814Z,75658.25
2022-09-01T23:51:45.950Z,75658.25
2022-09-01T23:54:15.244Z,75670.50
2022-09-01T23:56:43.646Z,75682.72
2022-09-01T23:59:11.951Z,75705.16
